Cordova, AL (35550)

6:16 AM CDT on May 30, 2015 (GMT -0500)
Hay Valley | | Change Station
CLOSE
Current Station
Personal Weather Station
Location: Parrish, AL
Elevation: 482 ft
Nearby Weather Stations

Elev 482 ft 33.77 °N, 87.27 °W | Updated 5 minutes ago

Mostly Cloudy
Mostly Cloudy
65.8 °F
Feels Like 65.8 °F
N
0.0
Wind Variable Wind from East

Today
High -- | Low -- °F
--% Chance of Precip.
Yesterday
High -- | Low -- °F
Precip. -- in
5:39 AM 7:52 PM
Waxing Gibbous, 89% visible
Pressure 30.11 in
Visibility 2.0 miles
Clouds Clear
Dew Point 64 °F
Humidity 94%
Rainfall 0.00 in
Snow Depth Not available.
UV 0 out of 12
Pollen 2.40 out of 12
Air Quality Not available.
Flu Activity Sporadic
METAR KJFX 301115Z AUTO 00000KT 2SM BR CLR 19/19 A3011 RMK A02 P-128

More Conditions Fewer Conditions

Pressure 30.11 in
Visibility 2.0 miles
Clouds Clear
Dew Point 64 °F
Humidity 94%
Rainfall 0.00 in
Snow Depth Not available.
UV 0 out of 12
Pollen 2.40 out of 12
Air Quality Not available.
Flu Activity Sporadic
METAR KJFX 301115Z AUTO 00000KT 2SM BR CLR 19/19 A3011 RMK A02 P-128

More Conditions Fewer Conditions

10-Day Weather Forecast

Almanac

Astronomy

May. 30, 2015 Rise Set
Actual Time
Civil Twilight
Nautical Twilight
Astronomical Twilight
Moon
Length of Visible Light
Length of Day
Tomorrow will be .
, % of the Moon is Illuminated

Today's Extremes

State Highs State Lows

Community

WunderPhotos

Upload Photos

1,825,481 photos uploaded!

WunderBlogs® & News

Nearby

Air Quality

  Air Quality AQ Index Pollutant
Not available.

Snow Depth

Station Depth Elevation

Earthquake Activity

City Distance Mag. Time & Date
Minimum magnitude displayed is 2.5.

Coastal Water Temperatures

Place Temperature

Stations

Nearby Weather Stations

Station Location Temp. Windchill Dew Point Humidity Wind Precip. Elev Updated Type